Time;durP1;ratioP1;P1;durP2;ratioP2;P2;SDS_P1;SDS_P2;PMS_P1;PMS_P2;Temp;Humidity;BMP_temperature;BMP_pressure;BME280_temperature;BME280_humidity;BME280_pressure;Samples;Min_cycle;Max_cycle;Signal;HPM_P1;HPM_P2
2022/05/21 00:02:15;;;;;;;6.17;4.80;;;;;;;30.53;62.28;100655.50;4999924;28;65192;-42
2022/05/21 00:04:46;;;;;;;9.40;6.30;;;;;;;30.55;64.97;100650.69;5004701;28;69660;-41
2022/05/21 00:07:17;;;;;;;8.27;6.07;;;;;;;30.67;65.52;100667.88;5018243;28;65608;-41
2022/05/21 00:09:47;;;;;;;11.23;6.38;;;;;;;30.72;67.00;100673.41;5018383;28;69747;-41
2022/05/21 00:12:19;;;;;;;9.55;6.65;;;;;;;30.78;66.95;100668.97;5016290;28;65510;-40
2022/05/21 00:14:52;;;;;;;7.90;7.20;;;;;;;30.78;70.31;100666.28;5016563;28;69708;-42
2022/05/21 00:17:23;;;;;;;9.02;8.10;;;;;;;30.87;70.54;100675.81;5017376;28;65798;-43
2022/05/21 00:19:54;;;;;;;8.65;7.78;;;;;;;30.88;70.73;100682.88;5016271;28;69794;-44
2022/05/21 00:22:25;;;;;;;11.68;7.03;;;;;;;30.89;70.90;100684.50;5017285;28;67343;-44
2022/05/21 00:24:56;;;;;;;8.25;7.32;;;;;;;30.94;71.26;100681.13;5016934;28;71417;-43
2022/05/21 00:27:27;;;;;;;8.48;6.97;;;;;;;30.97;71.26;100690.69;5021205;28;67656;-42
2022/05/21 00:29:58;;;;;;;8.85;7.28;;;;;;;31.05;70.98;100693.09;5020637;28;71117;-45
2022/05/21 00:32:28;;;;;;;13.40;7.25;;;;;;;30.99;71.33;100694.84;5020037;28;65942;-43
2022/05/21 00:35:00;;;;;;;10.52;7.65;;;;;;;31.05;71.22;100693.09;5019949;28;69193;-41
2022/05/21 00:37:31;;;;;;;11.80;8.05;;;;;;;31.10;71.25;100702.22;5016494;28;65600;-41
2022/05/21 00:40:02;;;;;;;16.40;7.20;;;;;;;31.08;70.86;100696.19;5036124;28;70744;-40
2022/05/21 00:42:34;;;;;;;10.75;7.20;;;;;;;31.09;71.06;100706.00;5021932;28;65858;-40
2022/05/21 00:45:06;;;;;;;20.10;7.60;;;;;;;31.11;70.59;100706.56;5019803;28;69618;-42
2022/05/21 00:47:36;;;;;;;8.07;6.60;;;;;;;31.15;69.18;100709.66;5021371;28;65613;-40
2022/05/21 00:50:11;;;;;;;6.60;5.57;;;;;;;31.34;66.93;100715.88;5022148;28;69238;-40
2022/05/21 00:52:42;;;;;;;6.15;5.38;;;;;;;31.41;66.67;100713.97;5019566;28;66441;-39
2022/05/21 00:55:19;;;;;;;8.20;4.80;;;;;;;31.08;66.69;100654.72;5020838;28;69541;-41
2022/05/21 01:00:56;;;;;;;9.55;5.00;;;;;;;31.63;65.53;100727.88;5020979;28;70509;-41
2022/05/21 01:03:29;;;;;;;5.13;4.78;;;;;;;31.68;64.67;100736.13;5021061;28;65882;-40
2022/05/21 01:06:05;;;;;;;4.88;4.47;;;;;;;31.72;64.34;100729.19;5021991;28;69813;-41
2022/05/21 01:08:38;;;;;;;6.18;5.28;;;;;;;31.67;64.49;100701.94;5021318;28;66255;-41
2022/05/21 01:11:13;;;;;;;;;;;;;;;31.50;66.00;100719.91;5021797;28;69462;-40
2022/05/21 01:13:46;;;;;;;5.60;5.10;;;;;;;31.29;63.94;100629.03;5021390;28;65758;-40
2022/05/21 01:16:17;;;;;;;6.93;4.43;;;;;;;31.89;64.22;100713.09;5020473;28;70193;-40
2022/05/21 01:18:48;;;;;;;4.90;4.40;;;;;;;31.93;64.13;100722.47;5021633;28;65062;-40
2022/05/21 01:21:19;;;;;;;5.60;4.65;;;;;;;31.98;63.76;100725.31;5020333;28;70905;-40
2022/05/21 01:23:50;;;;;;;6.28;5.15;;;;;;;31.99;63.84;100721.53;5020529;28;66970;-40
2022/05/21 01:26:24;;;;;;;6.53;5.03;;;;;;;32.02;63.49;100721.06;5017945;28;70096;-40
2022/05/21 01:28:57;;;;;;;4.60;4.20;;;;;;;31.90;63.19;100706.63;5019887;28;65871;-42
2022/05/21 01:31:28;;;;;;;4.82;4.15;;;;;;;32.04;62.71;100715.41;5020293;28;70274;-40
2022/05/21 01:33:59;;;;;;;4.97;4.57;;;;;;;32.14;62.50;100722.97;5020419;28;65782;-40
2022/05/21 01:36:30;;;;;;;4.47;4.05;;;;;;;32.15;62.40;100725.47;5018045;28;70037;-40
2022/05/21 01:39:01;;;;;;;4.88;4.50;;;;;;;32.17;62.50;100727.94;5020271;28;65390;-40
2022/05/21 01:41:33;;;;;;;10.60;4.80;;;;;;;32.20;62.71;100722.03;5020441;28;70178;-41
2022/05/21 01:46:53;;;;;;;4.53;4.13;;;;;;;32.25;62.25;100722.16;5019852;28;70246;-41
2022/05/21 01:49:23;;;;;;;4.93;4.45;;;;;;;32.27;62.21;100726.31;5016451;28;66185;-40
2022/05/21 01:51:56;;;;;;;4.80;4.40;;;;;;;31.83;62.01;100641.59;4999067;28;70043;-40
2022/05/21 01:54:28;;;;;;;4.80;4.05;;;;;;;32.33;61.71;100716.41;5000164;28;66791;-41
2022/05/21 01:57:00;;;;;;;4.15;3.83;;;;;;;32.33;61.50;100713.69;5016329;28;69343;-41
2022/05/21 01:59:30;;;;;;;4.53;4.13;;;;;;;32.36;61.71;100720.53;5019490;28;66704;-40
2022/05/21 02:02:01;;;;;;;3.88;3.58;;;;;;;32.40;61.20;100714.41;5019654;28;70074;-40
2022/05/21 02:04:33;;;;;;;4.10;3.80;;;;;;;32.42;61.05;100723.13;5018696;28;66230;-40
2022/05/21 02:07:05;;;;;;;4.22;3.88;;;;;;;32.43;61.10;100716.66;5019552;28;70121;-39
2022/05/21 02:09:36;;;;;;;3.55;3.33;;;;;;;32.46;60.94;100710.78;5018970;28;65758;-40
2022/05/21 02:12:10;;;;;;;3.92;3.63;;;;;;;32.49;61.03;100710.31;5020286;28;70187;-40
2022/05/21 02:14:41;;;;;;;4.40;3.60;;;;;;;32.46;61.05;100713.50;5017700;28;67984;-42
2022/05/21 02:17:12;;;;;;;5.50;3.80;;;;;;;32.52;60.93;100709.03;5017063;28;69433;-40
2022/05/21 02:19:43;;;;;;;3.70;3.40;;;;;;;32.51;60.77;100691.06;5017981;28;65361;-41
2022/05/21 02:22:15;;;;;;;3.90;3.25;;;;;;;32.51;60.61;100693.78;5018027;28;71248;-40
2022/05/21 02:24:46;;;;;;;4.78;4.38;;;;;;;32.59;60.71;100698.03;5018045;28;66524;-40
2022/05/21 02:27:17;;;;;;;3.78;3.47;;;;;;;32.61;60.66;100699.44;5019568;28;69894;-41
2022/05/21 02:29:48;;;;;;;3.95;3.60;;;;;;;32.62;60.45;100692.13;5018001;28;66628;-40
2022/05/21 02:32:19;;;;;;;5.90;3.70;;;;;;;32.65;60.61;100684.34;5018827;28;69878;-40
2022/05/21 02:34:50;;;;;;;3.92;3.63;;;;;;;32.68;60.25;100685.75;5021190;28;65892;-40
2022/05/21 02:40:10;;;;;;;3.50;3.20;;;;;;;32.70;60.30;100676.28;5020161;28;65689;-40
2022/05/21 02:42:45;;;;;;;4.05;3.70;;;;;;;32.72;60.21;100670.63;5016748;28;70148;-40
2022/05/21 02:45:21;;;;;;;5.30;3.10;;;;;;;32.76;60.15;100665.53;5019952;28;65972;-39
2022/05/21 02:47:54;;;;;;;4.13;3.50;;;;;;;32.78;59.88;100663.41;5017464;28;70487;-41
2022/05/21 02:50:28;;;;;;;4.18;3.45;;;;;;;32.77;59.90;100651.75;5016772;28;66670;-39
2022/05/21 02:53:03;;;;;;;3.90;3.33;;;;;;;32.81;59.55;100652.91;4995990;28;69827;-40
2022/05/21 02:55:35;;;;;;;3.70;3.40;;;;;;;32.84;59.58;100646.97;5005020;28;65342;-40
2022/05/21 02:58:07;;;;;;;3.58;3.22;;;;;;;32.83;59.66;100637.19;5017655;28;68945;-40
2022/05/21 03:00:39;;;;;;;3.50;3.20;;;;;;;32.76;59.76;100622.91;5018138;28;66823;-40
2022/05/21 03:03:10;;;;;;;3.53;3.23;;;;;;;32.86;59.30;100633.16;5018754;28;69217;-40
2022/05/21 03:05:42;;;;;;;3.67;3.10;;;;;;;32.88;59.57;100637.31;5018469;28;66279;-41
2022/05/21 03:11:03;;;;;;;3.25;2.85;;;;;;;32.81;59.34;100620.31;5019458;28;66451;-41
2022/05/21 03:13:34;;;;;;;4.40;3.22;;;;;;;32.91;59.34;100631.38;5018960;28;69793;-40
2022/05/21 03:16:05;;;;;;;4.53;3.17;;;;;;;32.83;59.25;100606.50;5018246;28;65843;-41
2022/05/21 03:18:37;;;;;;;3.50;3.08;;;;;;;32.94;59.36;100624.66;5019553;28;69926;-40
2022/05/21 03:21:08;;;;;;;3.60;3.25;;;;;;;32.96;59.17;100627.97;5018758;28;66115;-40
2022/05/21 03:23:38;;;;;;;5.53;3.42;;;;;;;33.00;59.13;100628.31;5017222;28;70331;-41
2022/05/21 03:26:09;;;;;;;3.60;3.33;;;;;;;33.02;58.96;100620.78;5018816;28;65565;-39
2022/05/21 03:28:40;;;;;;;4.75;3.33;;;;;;;33.01;58.80;100609.03;5018736;28;70245;-40
2022/05/21 03:31:11;;;;;;;3.42;3.13;;;;;;;33.05;58.91;100614.84;5018898;28;65712;-41
2022/05/21 03:33:42;;;;;;;6.03;3.08;;;;;;;33.01;58.94;100609.03;5017958;28;69813;-39
2022/05/21 03:36:13;;;;;;;3.45;3.15;;;;;;;33.00;58.86;100601.16;5017397;28;65063;-40
2022/05/21 03:38:44;;;;;;;3.83;3.42;;;;;;;33.03;58.85;100596.06;5017221;28;69963;-41
2022/05/21 03:41:15;;;;;;;3.38;3.08;;;;;;;33.05;58.80;100583.06;5021037;28;65660;-40
2022/05/21 03:43:46;;;;;;;4.43;3.07;;;;;;;33.06;58.93;100581.16;5018340;28;70576;-41
2022/05/21 03:46:17;;;;;;;3.28;2.90;;;;;;;32.98;59.22;100581.50;5018305;28;65791;-40
2022/05/21 03:48:48;;;;;;;3.40;3.10;;;;;;;33.06;58.80;100583.88;5018306;28;70080;-40
2022/05/21 03:51:19;;;;;;;3.35;3.05;;;;;;;33.10;58.61;100574.19;5018512;28;66043;-40
2022/05/21 03:53:50;;;;;;;7.85;3.03;;;;;;;33.11;58.50;100562.25;5018564;28;70015;-42
2022/05/21 03:56:21;;;;;;;3.85;3.00;;;;;;;33.13;58.45;100568.25;5005290;28;66571;-41
2022/05/21 03:58:52;;;;;;;3.72;3.35;;;;;;;33.06;58.50;100549.38;4996903;28;69948;-41
2022/05/21 04:01:23;;;;;;;3.13;2.80;;;;;;;33.16;58.43;100567.78;5003388;28;68254;-40
2022/05/21 04:03:56;;;;;;;3.40;3.00;;;;;;;33.17;58.50;100558.53;5002298;28;69225;-39
2022/05/21 04:06:27;;;;;;;3.25;2.95;;;;;;;33.13;58.32;100541.09;5002579;28;65733;-40
2022/05/21 04:08:58;;;;;;;3.53;2.80;;;;;;;33.18;58.25;100549.31;5002917;28;70363;-40
2022/05/21 04:11:29;;;;;;;3.33;2.72;;;;;;;33.23;58.35;100543.97;5002649;28;66806;-41
2022/05/21 04:14:00;;;;;;;2.47;2.28;;;;;;;33.24;58.42;100547.50;5000756;28;70194;-40
2022/05/21 04:16:31;;;;;;;3.53;2.57;;;;;;;33.02;58.37;100514.78;4993478;28;67101;-41
2022/05/21 04:19:02;;;;;;;4.20;2.80;;;;;;;33.21;57.98;100535.25;5002435;28;69616;-40
2022/05/21 04:21:33;;;;;;;3.63;2.93;;;;;;;33.27;58.22;100542.44;5001988;28;65310;-41
2022/05/21 04:24:05;;;;;;;4.10;2.93;;;;;;;33.20;58.19;100517.28;5001877;28;70754;-41
2022/05/21 04:26:36;;;;;;;3.38;3.05;;;;;;;33.26;58.20;100519.00;4999276;28;65137;-41
2022/05/21 04:29:07;;;;;;;5.05;2.42;;;;;;;33.33;58.22;100511.53;5001477;28;69171;-39
2022/05/21 04:31:38;;;;;;;2.47;2.28;;;;;;;33.31;57.80;100499.25;5016272;28;65800;-40
2022/05/21 04:34:09;;;;;;;4.50;2.63;;;;;;;33.37;57.91;100509.13;4996800;28;69805;-40
2022/05/21 04:36:41;;;;;;;2.97;2.42;;;;;;;33.37;57.73;100511.84;5020326;28;65285;-41
2022/05/21 04:39:13;;;;;;;4.65;2.70;;;;;;;33.40;57.79;100514.09;5021832;28;70128;-40
2022/05/21 04:41:43;;;;;;;3.15;2.20;;;;;;;33.44;57.74;100509.00;5018355;28;65362;-40
2022/05/21 04:44:14;;;;;;;2.63;2.40;;;;;;;33.44;57.76;100511.72;5022151;28;70248;-40
2022/05/21 04:46:45;;;;;;;2.10;2.00;;;;;;;33.45;57.93;100499.75;5019132;28;66576;-40
2022/05/21 04:49:16;;;;;;;3.00;2.70;;;;;;;33.46;57.69;100501.41;5020727;28;70510;-40
2022/05/21 04:51:47;;;;;;;2.30;2.10;;;;;;;33.46;57.79;100491.38;5020178;28;65693;-40
2022/05/21 04:54:18;;;;;;;2.90;2.65;;;;;;;33.49;57.26;100485.44;5020352;28;69644;-40
2022/05/21 04:56:49;;;;;;;2.63;2.35;;;;;;;33.47;57.53;100459.56;5019749;28;65369;-40
2022/05/21 04:59:19;;;;;;;3.60;2.50;;;;;;;33.51;57.58;100460.69;5019491;28;70975;-40
2022/05/21 05:01:50;;;;;;;2.42;2.22;;;;;;;33.53;57.44;100459.41;5021590;28;65227;-40
2022/05/21 05:04:21;;;;;;;2.58;2.00;;;;;;;33.43;57.52;100431.19;5020769;28;70012;-40
2022/05/21 05:06:52;;;;;;;4.43;2.60;;;;;;;33.54;57.40;100438.47;5020482;28;66102;-40
2022/05/21 05:09:24;;;;;;;3.33;2.10;;;;;;;33.55;57.36;100445.56;5018122;28;70182;-39
2022/05/21 05:11:56;;;;;;;2.42;2.05;;;;;;;33.59;57.47;100441.28;5019671;28;65351;-40
2022/05/21 05:14:27;;;;;;;2.88;2.40;;;;;;;33.60;57.48;100440.22;5019314;28;70788;-39
2022/05/21 05:16:58;;;;;;;3.70;1.88;;;;;;;33.62;57.44;100440.78;5019731;28;66322;-41
2022/05/21 05:19:30;;;;;;;2.58;2.20;;;;;;;33.56;57.21;100430.91;5020479;28;68979;-40
2022/05/21 05:22:03;;;;;;;2.85;2.20;;;;;;;33.67;57.27;100440.84;5019028;28;65368;-41
2022/05/21 05:24:35;;;;;;;2.97;2.30;;;;;;;33.66;57.47;100441.94;5020503;28;70574;-40
2022/05/21 05:27:06;;;;;;;2.83;2.08;;;;;;;33.70;57.18;100453.13;5021039;28;66560;-40
2022/05/21 05:29:37;;;;;;;3.28;2.25;;;;;;;33.64;57.52;100457.66;5019368;28;70213;-40
2022/05/21 05:32:09;;;;;;;5.63;2.00;;;;;;;33.63;57.56;100458.75;5014273;28;66410;-40
2022/05/21 05:34:40;;;;;;;2.08;1.83;;;;;;;33.74;57.22;100476.88;5016038;28;70157;-41
2022/05/21 05:37:12;;;;;;;6.18;2.15;;;;;;;33.64;58.46;100476.72;5015334;28;66644;-42
2022/05/21 05:39:43;;;;;;;;;;;;;;;33.15;60.36;100490.00;5019827;28;69843;-40
2022/05/21 05:42:14;;;;;;;3.25;2.95;;;;;;;33.30;60.63;100495.72;5019686;28;66782;-41
2022/05/21 05:44:45;;;;;;;3.17;2.40;;;;;;;33.15;61.18;100506.31;5017925;28;71543;-40
2022/05/21 05:47:16;;;;;;;2.90;2.55;;;;;;;33.10;61.77;100508.97;5018193;28;65909;-40
2022/05/21 05:49:47;;;;;;;3.05;2.50;;;;;;;32.89;61.82;100492.25;5017171;28;69529;-44
2022/05/21 05:52:18;;;;;;;4.38;2.50;;;;;;;32.96;62.29;100513.00;5014171;28;65347;-39
2022/05/21 05:54:49;;;;;;;3.00;2.53;;;;;;;32.90;62.40;100504.78;5016830;28;70457;-40
2022/05/21 05:57:20;;;;;;;2.27;2.07;;;;;;;32.87;62.28;100482.69;5001206;28;65709;-39
2022/05/21 05:59:51;;;;;;;;;;;;;;;32.55;63.13;100474.22;5001543;28;69929;-40
2022/05/21 06:05:32;;;;;;;2.50;1.95;;;;;;;31.90;62.87;100294.31;4988045;28;69725;-41
2022/05/21 06:08:05;;;;;;;2.90;2.25;;;;;;;32.66;62.87;100411.69;4999533;28;65065;-40
2022/05/21 06:10:43;;;;;;;2.15;1.92;;;;;;;32.72;62.85;100407.19;5001769;28;69327;-40
2022/05/21 06:13:14;;;;;;;1.98;1.77;;;;;;;32.73;63.13;100400.66;5001964;28;65840;-40
2022/05/21 06:15:45;;;;;;;2.28;1.90;;;;;;;32.66;63.21;100402.72;5000381;28;69782;-41
2022/05/21 06:18:20;;;;;;;2.07;1.70;;;;;;;32.24;63.35;100337.88;5001548;28;65106;-40
2022/05/21 06:20:51;;;;;;;2.28;1.80;;;;;;;32.65;63.21;100398.34;5008227;28;69418;-39
2022/05/21 06:23:22;;;;;;;2.00;1.90;;;;;;;32.65;63.21;100414.66;5020065;28;66465;-40
2022/05/21 06:25:53;;;;;;;1.60;1.50;;;;;;;32.61;63.20;100414.31;5020671;28;70142;-41
2022/05/21 06:28:24;;;;;;;2.73;1.50;;;;;;;32.65;63.25;100415.50;5020899;28;65489;-42
2022/05/21 06:30:56;;;;;;;2.33;2.08;;;;;;;32.61;63.44;100413.50;5020566;28;70285;-43
2022/05/21 06:33:30;;;;;;;2.50;1.73;;;;;;;32.51;63.34;100386.97;5019155;28;65758;-40
2022/05/21 06:36:08;;;;;;;2.75;1.77;;;;;;;32.66;63.24;100405.44;5018537;28;69923;-40
2022/05/21 06:38:40;;;;;;;2.83;1.70;;;;;;;32.67;63.50;100391.59;5020306;28;65349;-40
2022/05/21 06:41:12;;;;;;;2.17;1.80;;;;;;;32.63;63.69;100381.50;5020852;28;70326;-41
2022/05/21 06:43:50;;;;;;;2.10;1.63;;;;;;;32.68;63.40;100381.56;5018864;28;67028;-40
2022/05/21 06:46:21;;;;;;;1.63;1.42;;;;;;;32.69;63.44;100394.09;5020462;28;70752;-40
2022/05/21 06:48:53;;;;;;;2.90;1.90;;;;;;;32.68;63.12;100395.16;5018730;28;65253;-39
2022/05/21 06:51:23;;;;;;;2.03;1.80;;;;;;;32.71;63.52;100459.88;5020836;28;71784;-40
2022/05/21 06:53:55;;;;;;;4.77;2.50;;;;;;;32.67;63.36;100480.41;5018146;28;65721;-40
2022/05/21 06:56:25;;;;;;;3.80;3.50;;;;;;;32.68;63.61;100485.63;5019347;28;69998;-39
2022/05/21 06:58:56;;;;;;;3.63;3.30;;;;;;;32.67;63.80;100488.56;5020334;28;66213;-39
2022/05/21 07:01:27;;;;;;;3.60;3.30;;;;;;;32.67;64.09;100510.28;5020271;28;70112;-40
2022/05/21 07:03:59;;;;;;;3.50;3.20;;;;;;;32.52;64.45;100512.72;5001730;28;65598;-40
2022/05/21 07:09:21;;;;;;;4.43;3.47;;;;;;;32.58;64.85;100509.03;5016815;28;65758;-39
2022/05/21 07:11:52;;;;;;;3.42;3.13;;;;;;;32.56;65.19;100481.28;5002867;28;69596;-43
2022/05/21 07:14:23;;;;;;;6.93;2.90;;;;;;;32.50;65.33;100466.78;5020492;28;64967;-41
2022/05/21 07:16:57;;;;;;;4.53;2.90;;;;;;;32.45;65.36;100448.47;5019761;28;69669;-40
2022/05/21 07:19:27;;;;;;;3.38;2.63;;;;;;;32.50;65.44;100485.78;5020003;28;66260;-39
2022/05/21 07:22:00;;;;;;;3.58;3.00;;;;;;;32.43;66.08;100494.03;5018712;28;70339;-38
2022/05/21 07:24:31;;;;;;;2.90;2.60;;;;;;;32.43;65.63;100502.19;5019911;28;65632;-40
2022/05/21 07:27:03;;;;;;;3.53;2.47;;;;;;;32.40;65.99;100505.38;5018470;28;70034;-39
2022/05/21 07:29:35;;;;;;;3.67;3.35;;;;;;;32.38;66.03;100518.38;5019181;28;66082;-40
2022/05/21 07:32:16;;;;;;;3.25;2.95;;;;;;;32.38;66.03;100502.06;5020084;28;69408;-40
2022/05/21 07:34:48;;;;;;;3.92;3.25;;;;;;;32.36;66.13;100487.91;5018856;28;66506;-40
2022/05/21 07:37:19;;;;;;;3.22;2.80;;;;;;;32.31;66.31;100460.66;5023306;28;70312;-41
2022/05/21 07:39:50;;;;;;;3.17;2.88;;;;;;;32.28;66.00;100436.72;5023504;28;65342;-40
2022/05/21 07:42:21;;;;;;;2.97;2.78;;;;;;;32.30;66.40;100434.59;5021344;28;69620;-42
2022/05/21 07:44:52;;;;;;;3.28;3.03;;;;;;;32.25;66.43;100437.19;5023229;28;66031;-41
2022/05/21 07:47:24;;;;;;;3.90;3.60;;;;;;;32.24;66.66;100446.41;5023437;28;71164;-41
2022/05/21 07:49:57;;;;;;;4.07;3.78;;;;;;;32.22;66.62;100440.41;5022792;28;66599;-42
2022/05/21 07:52:29;;;;;;;4.13;3.83;;;;;;;32.21;66.59;100438.75;5022926;28;70003;-40
2022/05/21 07:55:01;;;;;;;4.38;3.97;;;;;;;32.15;66.70;100437.81;5020011;28;65282;-41
2022/05/21 07:57:32;;;;;;;4.50;4.20;;;;;;;32.08;67.00;100420.03;5002722;28;70571;-40
2022/05/21 08:00:05;;;;;;;3.88;3.58;;;;;;;32.03;67.44;100407.16;5011287;28;65963;-41
2022/05/21 08:02:42;;;;;;;4.93;4.53;;;;;;;31.99;67.09;100390.56;5021037;28;70529;-41
2022/05/21 08:05:13;;;;;;;5.60;4.28;;;;;;;32.10;67.09;100396.19;5021328;28;66182;-41
2022/05/21 08:07:52;;;;;;;6.40;5.05;;;;;;;32.05;67.29;100386.88;5020403;28;71055;-42
2022/05/21 08:10:24;;;;;;;4.70;4.40;;;;;;;32.08;67.34;100387.47;5021973;28;66510;-41
2022/05/21 08:12:55;;;;;;;4.78;4.47;;;;;;;31.99;67.24;100385.13;5020562;28;70407;-42
2022/05/21 08:15:26;;;;;;;5.10;4.70;;;;;;;32.04;67.44;100393.38;5021552;28;66286;-41
2022/05/21 08:18:01;;;;;;;4.50;4.10;;;;;;;32.03;67.36;100393.59;5022728;28;70117;-42
2022/05/21 08:20:37;;;;;;;4.55;4.22;;;;;;;31.49;67.60;100322.47;5022535;28;65941;-40
2022/05/21 08:28:52;;;;;;;5.25;4.85;;;;;;;31.94;67.79;100414.03;5021414;28;70135;-41
2022/05/21 08:31:29;;;;;;;7.03;4.75;;;;;;;31.92;67.96;100410.72;5018324;28;64947;-43
2022/05/21 08:34:00;;;;;;;5.33;4.83;;;;;;;31.92;67.75;100416.97;5022148;28;69173;-42
2022/05/21 08:36:32;;;;;;;5.30;4.90;;;;;;;31.92;67.91;100416.16;5022948;28;66148;-40
2022/05/21 08:39:03;;;;;;;5.20;4.87;;;;;;;31.90;68.32;100419.09;5020413;28;70023;-41
2022/05/21 08:41:34;;;;;;;5.07;4.78;;;;;;;31.89;68.16;100412.00;5017978;28;66188;-44
2022/05/21 08:44:17;;;;;;;7.43;6.53;;;;;;;31.37;69.90;100330.59;5020176;28;70666;-41
2022/05/21 08:46:56;;;;;;;9.35;8.55;;;;;;;31.88;69.87;100426.63;5020037;28;66602;-43
2022/05/21 08:49:36;;;;;;;9.35;8.55;;;;;;;31.77;70.73;100414.72;5021502;28;69254;-40
2022/05/21 08:52:09;;;;;;;11.05;10.02;;;;;;;31.86;71.04;100426.03;5019280;28;66528;-41
2022/05/21 08:54:47;;;;;;;11.93;9.60;;;;;;;31.88;71.60;100434.78;5011067;28;69646;-40
2022/05/21 08:57:39;;;;;;;14.18;10.45;;;;;;;31.82;72.18;100436.53;4999649;28;65903;-41
2022/05/21 09:00:15;;;;;;;11.35;10.23;;;;;;;31.89;71.67;100433.69;5002744;28;69813;-41
2022/05/21 09:02:49;;;;;;;12.48;10.82;;;;;;;31.88;72.74;100436.66;5021075;28;65077;-40
2022/05/21 09:05:25;;;;;;;12.98;11.60;;;;;;;31.44;72.69;100371.97;5019634;28;69237;-41
2022/05/21 09:08:20;;;;;;;22.27;11.48;;;;;;;31.66;73.74;100407.44;5018636;28;66130;-41
2022/05/21 09:10:58;;;;;;;14.40;11.13;;;;;;;31.70;73.99;100434.91;5020660;28;70392;-40
2022/05/21 09:13:46;;;;;;;14.13;10.90;;;;;;;31.63;74.51;100423.34;5019586;28;66803;-40
2022/05/21 09:19:09;;;;;;;13.73;10.27;;;;;;;31.46;75.29;100413.22;5020152;28;66564;-40
2022/05/21 09:21:47;;;;;;;16.90;10.82;;;;;;;30.98;75.88;100340.22;5019309;28;69689;-41
2022/05/21 09:24:39;;;;;;;11.82;10.50;;;;;;;30.65;75.52;100309.09;5019253;28;66347;-41
2022/05/21 09:27:42;;;;;;;13.27;9.60;;;;;;;31.24;75.40;100421.06;5017439;28;69053;-40
2022/05/21 09:30:24;;;;;;;13.85;9.73;;;;;;;31.40;75.39;100430.44;5018596;28;66109;-40
2022/05/21 09:33:01;;;;;;;12.40;10.07;;;;;;;31.38;76.13;100427.13;5016762;28;70189;-42
2022/05/21 09:35:50;;;;;;;10.18;9.15;;;;;;;31.40;75.90;100441.28;5020550;28;66233;-41
2022/05/21 09:38:33;;;;;;;15.45;9.32;;;;;;;31.29;76.20;100433.94;5018410;28;70101;-39
2022/05/21 09:41:09;;;;;;;10.15;9.20;;;;;;;31.28;76.39;100432.25;5018260;28;66078;-40
2022/05/21 09:46:46;;;;;;;15.35;9.75;;;;;;;31.15;77.15;100415.16;5020889;28;65680;-39
2022/05/21 09:49:23;;;;;;;10.35;9.35;;;;;;;31.27;77.02;100444.97;5020227;28;69980;-42
2022/05/21 09:52:20;;;;;;;13.40;10.02;;;;;;;30.88;77.51;100373.31;5018911;28;66291;-40
2022/05/21 09:54:51;;;;;;;13.38;10.38;;;;;;;31.21;77.38;100431.56;5020514;28;70224;-40
2022/05/21 09:57:25;;;;;;;15.82;10.32;;;;;;;31.21;77.38;100432.38;5017707;28;66110;-47
2022/05/21 10:00:11;;;;;;;15.32;10.48;;;;;;;31.13;77.63;100436.25;5018856;28;70207;-43
2022/05/21 10:02:47;;;;;;;13.05;10.35;;;;;;;31.11;77.74;100427.50;5020352;28;66493;-41
2022/05/21 10:05:50;;;;;;;17.23;10.82;;;;;;;31.00;78.40;100431.03;5019159;28;69869;-40
2022/05/21 10:11:49;;;;;;;12.98;11.27;;;;;;;31.08;78.56;100443.41;5019692;28;70138;-39
2022/05/21 10:14:47;;;;;;;13.57;11.02;;;;;;;30.79;78.20;100396.34;5018390;28;66347;-39
2022/05/21 10:17:42;;;;;;;11.15;9.52;;;;;;;30.90;78.53;100430.78;5008745;28;71032;-40
2022/05/21 10:20:16;;;;;;;11.48;9.18;;;;;;;31.07;78.40;100437.19;5017765;28;66417;-40
2022/05/21 10:23:09;;;;;;;9.88;8.95;;;;;;;30.97;79.12;100436.91;5015885;28;69946;-41
2022/05/21 10:26:01;;;;;;;10.35;8.82;;;;;;;30.99;78.29;100440.22;5013521;28;65691;-40
2022/05/21 10:28:46;;;;;;;9.40;8.50;;;;;;;30.99;78.75;100433.97;5009713;28;69508;-40
2022/05/21 10:31:43;;;;;;;16.83;9.00;;;;;;;31.05;79.29;100433.88;5031159;28;66781;-43
2022/05/21 10:34:44;;;;;;;8.95;8.02;;;;;;;31.09;80.02;100435.06;5001735;28;70144;-37
2022/05/21 10:37:41;;;;;;;10.68;8.68;;;;;;;31.13;80.45;100449.78;5017047;28;66547;-38
2022/05/21 10:40:44;;;;;;;8.77;8.00;;;;;;;31.27;79.44;100431.44;5020122;28;69564;-38
2022/05/21 10:43:36;;;;;;;8.77;8.00;;;;;;;31.26;79.25;100435.22;5019725;28;66199;-38
2022/05/21 10:46:27;;;;;;;10.10;7.78;;;;;;;31.28;79.26;100426.84;5017905;28;69040;-38
2022/05/21 10:49:30;;;;;;;11.60;7.90;;;;;;;30.83;79.20;100348.81;5017968;28;66178;-38
2022/05/21 10:52:21;;;;;;;6.93;6.35;;;;;;;31.64;77.35;100441.28;5020187;28;70606;-39
2022/05/21 10:55:28;;;;;;;6.32;5.70;;;;;;;31.66;77.36;100439.97;5017108;28;65875;-39
2022/05/21 10:58:08;;;;;;;6.88;6.13;;;;;;;31.85;76.02;100448.81;5010692;28;69709;-38
2022/05/21 11:00:48;;;;;;;6.88;6.38;;;;;;;31.91;75.81;100450.59;5013538;28;66499;-38
2022/05/21 11:03:41;;;;;;;9.15;6.05;;;;;;;31.94;75.81;100455.53;5018539;28;69355;-40
2022/05/21 11:06:29;;;;;;;6.43;5.93;;;;;;;32.08;74.72;100453.41;5016584;28;66509;-38
2022/05/21 11:09:41;;;;;;;6.90;6.07;;;;;;;32.15;74.55;100453.25;5015156;28;69443;-38
2022/05/21 11:12:20;;;;;;;6.50;5.90;;;;;;;31.79;74.31;100396.34;4971874;28;65901;-39
2022/05/21 11:15:31;;;;;;;6.80;6.20;;;;;;;32.10;74.05;100440.44;5013424;28;69906;-38
2022/05/21 11:18:07;;;;;;;6.88;6.18;;;;;;;32.30;73.88;100456.31;5010971;28;65025;-37
2022/05/21 11:20:46;;;;;;;6.43;5.82;;;;;;;32.24;73.55;100441.00;5017120;28;70297;-39
2022/05/21 11:23:25;;;;;;;6.35;5.80;;;;;;;32.34;73.08;100460.19;5017495;28;65469;-39
2022/05/21 11:26:09;;;;;;;7.38;6.32;;;;;;;32.35;73.35;100467.28;5015764;28;69938;-38
2022/05/21 11:29:03;;;;;;;7.30;6.60;;;;;;;32.42;73.22;100467.94;5015913;28;66666;-38
2022/05/21 11:37:52;;;;;;;10.27;9.05;;;;;;;32.07;72.03;100470.75;5013557;28;69286;-47
2022/05/21 11:40:51;;;;;;;11.13;10.00;;;;;;;32.05;71.65;100486.44;4993189;28;65420;-41
2022/05/21 11:43:22;;;;;;;14.80;9.55;;;;;;;32.07;71.70;100486.19;5010779;28;69598;-40
2022/05/21 11:46:11;;;;;;;12.30;9.95;;;;;;;32.02;71.96;100493.16;5011433;28;65244;-42
2022/05/21 11:48:42;;;;;;;12.95;10.23;;;;;;;31.92;71.93;100492.94;5015068;28;69689;-40
2022/05/21 11:51:17;;;;;;;15.15;11.25;;;;;;;31.89;71.14;100493.38;5012552;28;65540;-39
2022/05/21 11:53:48;;;;;;;14.70;12.15;;;;;;;31.81;71.95;100491.84;5028120;28;69026;-41
2022/05/21 11:56:20;;;;;;;16.98;12.10;;;;;;;31.77;72.02;100489.84;5013562;28;65414;-41
2022/05/21 11:59:00;;;;;;;22.65;12.57;;;;;;;31.70;71.91;100494.56;5016922;28;70856;-40
2022/05/21 12:01:40;;;;;;;12.02;10.75;;;;;;;31.72;72.12;100503.28;5013753;28;65494;-38
2022/05/21 12:04:40;;;;;;;18.20;11.77;;;;;;;31.53;72.10;100484.41;5033456;28;70069;-39
2022/05/21 12:07:48;;;;;;;21.20;12.98;;;;;;;31.58;72.01;100499.97;5019237;28;65797;-40
2022/05/21 12:10:29;;;;;;;16.33;11.45;;;;;;;31.66;72.81;100506.94;5016634;28;68974;-40
2022/05/21 12:13:35;;;;;;;14.52;12.73;;;;;;;31.39;72.30;100478.38;5018579;28;66589;-39
2022/05/21 12:16:21;;;;;;;17.20;12.48;;;;;;;31.65;72.63;100510.69;5006225;28;69575;-40
2022/05/21 12:18:52;;;;;;;17.58;12.63;;;;;;;31.67;72.41;100511.28;4999273;28;65571;-39
2022/05/21 12:21:50;;;;;;;14.50;11.57;;;;;;;31.67;72.72;100516.72;5001310;28;70182;-40
2022/05/21 12:24:26;;;;;;;18.80;13.98;;;;;;;31.64;72.41;100511.75;5002133;28;65981;-39
2022/05/21 12:27:03;;;;;;;18.80;13.55;;;;;;;31.41;72.53;100491.69;5001164;28;68956;-41
2022/05/21 12:29:43;;;;;;;17.98;11.60;;;;;;;31.58;72.38;100541.47;5001888;28;66147;-40
2022/05/21 12:32:27;;;;;;;16.92;10.95;;;;;;;31.02;72.90;100445.16;5019484;28;70232;-41
2022/05/21 12:35:25;;;;;;;12.30;11.05;;;;;;;31.51;72.62;100524.50;5002863;28;66146;-41
2022/05/21 12:38:11;;;;;;;11.95;10.68;;;;;;;31.59;72.60;100537.72;5014324;28;70522;-42
2022/05/21 12:40:53;;;;;;;11.00;10.00;;;;;;;31.23;72.59;100461.94;5019733;28;65303;-43